Time;durP1;ratioP1;P1;durP2;ratioP2;P2;SDS_P1;SDS_P2;PMS_P1;PMS_P2;Temp;Humidity;BMP_temperature;BMP_pressure;BME280_temperature;BME280_humidity;BME280_pressure;Samples;Min_cycle;Max_cycle;Signal;HPM_P1;HPM_P2
2022/08/05 00:00:20;;;;;;;4.65;2.80;;;;;;;25.52;39.61;97604.75;4975913;28;20422;-77
2022/08/05 00:05:45;;;;;;;4.00;2.63;;;;;;;25.47;39.86;97601.66;4976953;28;20437;-77
2022/08/05 00:08:36;;;;;;;4.30;2.72;;;;;;;25.44;39.92;97608.81;4986810;28;20909;-77
2022/08/05 00:11:07;;;;;;;4.03;2.85;;;;;;;25.39;39.57;97606.50;4975699;28;20440;-77
2022/08/05 00:14:25;;;;;;;3.95;2.67;;;;;;;25.39;40.17;97606.50;4976358;28;20434;-77
2022/08/05 00:16:58;;;;;;;4.72;2.80;;;;;;;25.34;39.92;97599.41;4976033;28;20746;-78
2022/08/05 00:19:30;;;;;;;4.40;2.67;;;;;;;25.39;40.00;97605.72;4975139;28;20833;-78
2022/08/05 00:22:07;;;;;;;6.37;2.60;;;;;;;25.40;40.41;97607.28;4975901;28;20845;-78
2022/08/05 00:24:38;;;;;;;3.80;2.63;;;;;;;25.35;40.41;97605.75;4974699;28;20565;-78
2022/08/05 00:27:09;;;;;;;3.92;2.58;;;;;;;25.33;40.77;97600.63;4991133;28;20423;-78
2022/08/05 00:29:43;;;;;;;3.63;2.47;;;;;;;25.35;40.56;97602.97;4988047;28;20418;-78
2022/08/05 00:32:13;;;;;;;4.00;2.92;;;;;;;25.33;40.25;97602.63;4979181;28;20436;-78
2022/08/05 00:34:44;;;;;;;3.80;2.90;;;;;;;25.33;40.40;97588.72;4987272;28;20533;-78
2022/08/05 00:37:32;;;;;;;4.53;2.85;;;;;;;25.28;40.78;97589.97;4974319;28;20502;-77
2022/08/05 00:40:21;;;;;;;3.88;2.75;;;;;;;25.25;40.83;97588.03;4974729;28;20869;-77
2022/08/05 00:42:56;;;;;;;3.88;2.95;;;;;;;25.24;41.05;97591.19;4971666;28;20440;-78
2022/08/05 00:45:24;;;;;;;4.40;2.63;;;;;;;25.25;41.27;97596.38;4974460;28;20430;-78
2022/08/05 00:48:09;;;;;;;4.10;2.80;;;;;;;25.26;41.41;97592.38;4970712;28;20438;-77
2022/08/05 00:50:41;;;;;;;4.60;2.70;;;;;;;25.24;41.33;97588.44;4975146;28;20422;-77
2022/08/05 00:53:16;;;;;;;6.00;2.80;;;;;;;25.26;41.18;97586.03;4974633;28;20751;-77
2022/08/05 00:56:04;;;;;;;3.50;2.55;;;;;;;25.25;41.77;97588.03;4988905;28;20904;-77
2022/08/05 00:58:37;;;;;;;5.70;2.87;;;;;;;25.24;41.66;97582.88;4975223;28;20514;-77
2022/08/05 01:01:10;;;;;;;3.70;2.60;;;;;;;25.16;41.58;97581.41;4990524;28;20776;-77
2022/08/05 01:03:42;;;;;;;4.65;2.75;;;;;;;25.15;41.97;97575.06;4988349;28;20425;-77
2022/08/05 01:06:17;;;;;;;3.92;2.70;;;;;;;25.18;41.85;97579.75;4967523;28;20424;-78
2022/08/05 01:08:45;;;;;;;3.58;2.50;;;;;;;25.14;41.76;97578.22;4993063;28;20426;-76
2022/08/05 01:11:18;;;;;;;4.43;2.90;;;;;;;25.14;42.42;97572.66;4974588;28;20846;-76
2022/08/05 01:14:02;;;;;;;4.30;2.85;;;;;;;25.08;41.98;97575.13;4975650;28;20429;-76
2022/08/05 01:16:34;;;;;;;4.73;2.90;;;;;;;25.08;42.32;97575.13;4975273;28;20502;-76
2022/08/05 01:19:19;;;;;;;4.07;2.97;;;;;;;25.03;41.75;97576.31;4974245;28;20420;-76
2022/08/05 01:22:18;;;;;;;6.30;3.17;;;;;;;24.97;42.63;97569.66;4988573;28;20514;-76
2022/08/05 01:25:20;;;;;;;5.30;3.00;;;;;;;24.92;42.39;97563.78;4973502;28;20418;-78
2022/08/05 01:28:00;;;;;;;5.05;3.30;;;;;;;24.88;42.67;97563.84;4974081;28;20504;-78
2022/08/05 01:30:29;;;;;;;4.70;3.20;;;;;;;24.87;42.48;97559.44;4988436;28;20460;-76
2022/08/05 01:33:03;;;;;;;5.15;3.08;;;;;;;24.83;42.76;97564.28;4976731;28;20437;-76
2022/08/05 01:35:33;;;;;;;5.30;3.07;;;;;;;24.79;42.63;97564.31;4976224;28;20422;-76
2022/08/05 01:38:21;;;;;;;4.47;3.38;;;;;;;24.80;42.71;97559.53;4974862;28;20453;-76
2022/08/05 01:40:58;;;;;;;4.23;3.00;;;;;;;24.79;42.99;97566.31;4975630;28;20418;-76
2022/08/05 01:43:30;;;;;;;4.18;2.97;;;;;;;24.74;42.94;97563.97;4974112;28;20415;-76
2022/08/05 01:46:01;;;;;;;3.95;3.15;;;;;;;24.76;42.78;97558.78;4975106;28;20441;-76
2022/08/05 01:48:44;;;;;;;4.20;3.10;;;;;;;24.74;43.38;97556.44;4983689;28;20422;-77
2022/08/05 01:51:17;;;;;;;4.47;3.20;;;;;;;24.68;43.24;97560.09;4993020;28;20494;-76
2022/08/05 01:53:48;;;;;;;4.43;2.90;;;;;;;24.68;43.69;97563.66;5000743;28;20808;-76
2022/08/05 01:56:29;;;;;;;5.07;3.00;;;;;;;24.69;43.70;97556.09;4974422;28;20424;-76
2022/08/05 01:59:22;;;;;;;3.90;2.90;;;;;;;24.71;43.53;97562.03;4999483;28;20428;-76
2022/08/05 02:01:51;;;;;;;4.68;3.20;;;;;;;24.72;43.96;97563.63;4982720;28;20568;-76
2022/08/05 02:04:24;;;;;;;4.20;3.38;;;;;;;24.67;43.88;97558.50;4980169;28;20420;-76
2022/08/05 02:06:52;;;;;;;4.37;2.97;;;;;;;24.68;43.82;97562.88;4979332;28;20423;-76
2022/08/05 02:09:21;;;;;;;5.43;3.03;;;;;;;24.63;44.14;97566.88;4991111;28;20904;-76
2022/08/05 02:12:23;;;;;;;4.18;2.90;;;;;;;24.63;44.15;97563.31;4971654;28;20921;-76
2022/08/05 02:15:04;;;;;;;4.50;3.10;;;;;;;24.63;44.51;97566.88;4990350;28;20438;-76
2022/08/05 02:17:34;;;;;;;4.07;3.05;;;;;;;24.58;44.23;97572.88;4978011;28;20419;-76
2022/08/05 02:20:23;;;;;;;5.22;3.22;;;;;;;24.47;44.61;97567.44;4986966;28;20430;-76
2022/08/05 02:22:57;;;;;;;4.90;2.97;;;;;;;24.49;44.81;97572.56;4992411;28;20517;-76
2022/08/05 02:25:49;;;;;;;4.85;3.00;;;;;;;24.46;44.45;97565.88;4975974;28;20439;-76
2022/08/05 02:28:24;;;;;;;4.15;3.05;;;;;;;24.51;45.08;97570.97;4984021;28;20468;-76
2022/08/05 02:31:06;;;;;;;3.78;2.72;;;;;;;24.53;44.75;97571.34;4971792;28;20450;-76
2022/08/05 02:33:37;;;;;;;4.63;2.92;;;;;;;24.55;44.92;97574.50;4989644;28;20429;-76
2022/08/05 02:36:10;;;;;;;4.05;3.20;;;;;;;24.50;44.92;97574.13;4982783;28;20423;-76
2022/08/05 02:38:44;;;;;;;4.55;2.80;;;;;;;24.50;44.78;97568.59;4981015;28;20463;-76
2022/08/05 02:41:22;;;;;;;4.57;2.92;;;;;;;24.48;45.25;97566.22;4982386;28;20471;-76
2022/08/05 02:44:04;;;;;;;5.18;3.20;;;;;;;24.51;44.99;97570.97;4991581;28;20430;-77
2022/08/05 02:46:45;;;;;;;4.30;3.13;;;;;;;24.48;44.87;97563.44;4997030;28;20419;-77
2022/08/05 02:49:29;;;;;;;4.00;2.97;;;;;;;24.48;45.24;97568.22;4998756;28;20517;-77
2022/08/05 02:52:07;;;;;;;4.43;3.08;;;;;;;24.43;45.04;97569.44;4974620;28;20878;-77
2022/08/05 02:54:37;;;;;;;4.40;3.03;;;;;;;24.44;45.35;97559.91;4974312;28;20424;-77
2022/08/05 02:57:14;;;;;;;4.43;3.10;;;;;;;24.44;45.16;97562.69;4991926;28;20433;-77
2022/08/05 03:00:02;;;;;;;4.60;2.90;;;;;;;24.42;45.84;97562.31;4980244;28;20910;-77
2022/08/05 03:02:35;;;;;;;4.13;3.03;;;;;;;24.40;45.69;97550.84;4987635;28;20442;-77
2022/08/05 03:05:04;;;;;;;5.23;3.50;;;;;;;24.33;45.99;97548.09;4975201;28;20428;-76
2022/08/05 03:07:33;;;;;;;4.10;3.00;;;;;;;24.31;45.48;97545.75;4978301;28;20429;-77
2022/08/05 03:10:23;;;;;;;3.88;2.80;;;;;;;24.31;45.75;97545.75;4974600;28;20433;-76
2022/08/05 03:12:54;;;;;;;6.13;3.23;;;;;;;24.31;45.93;97550.50;4989469;28;20484;-77
2022/08/05 03:15:25;;;;;;;6.70;3.33;;;;;;;24.31;45.71;97542.19;4995844;28;20473;-76
2022/08/05 03:17:56;;;;;;;6.72;3.05;;;;;;;24.20;46.19;97545.06;4977184;28;20422;-76
2022/08/05 03:20:26;;;;;;;5.95;3.13;;;;;;;24.19;46.53;97553.78;4975998;28;20427;-76
2022/08/05 03:22:55;;;;;;;4.00;3.13;;;;;;;24.13;46.17;97547.91;4995546;28;20426;-76
2022/08/05 03:25:50;;;;;;;4.60;3.30;;;;;;;24.75;45.28;97624.69;4993795;28;20418;-76
2022/08/05 03:28:38;;;;;;;5.03;3.00;;;;;;;24.98;44.28;97631.59;4976696;28;20948;-75
2022/08/05 03:31:08;;;;;;;7.03;3.20;;;;;;;24.50;45.04;97582.47;4977377;28;20901;-74
2022/08/05 03:33:39;;;;;;;5.15;3.00;;;;;;;24.79;44.61;97646.88;4993688;28;20441;-75
2022/08/05 03:36:18;;;;;;;5.05;3.15;;;;;;;24.74;44.91;97619.53;4976426;28;20418;-74
2022/08/05 03:39:06;;;;;;;4.22;3.03;;;;;;;24.43;45.46;97619.44;4992863;28;20462;-74
2022/08/05 03:41:40;;;;;;;6.87;2.90;;;;;;;24.41;45.25;97604.38;4994345;28;20452;-75
2022/08/05 03:44:13;;;;;;;4.95;3.20;;;;;;;24.33;45.61;97611.16;4978033;28;20517;-76
2022/08/05 03:46:47;;;;;;;4.63;3.38;;;;;;;24.28;45.72;97609.59;4992933;28;20433;-76
2022/08/05 03:49:17;;;;;;;5.20;3.30;;;;;;;24.21;45.68;97609.69;4976505;28;20520;-76
2022/08/05 03:51:51;;;;;;;5.73;3.20;;;;;;;24.28;45.64;97610.41;4994561;28;20423;-76
2022/08/05 03:54:40;;;;;;;;;;;;;;;24.25;45.54;97610.44;4995194;28;20433;-76
2022/08/05 03:57:32;;;;;;;;;;;;;;;24.23;45.68;97612.81;4979229;28;19980;-75
2022/08/05 04:00:10;;;;;;;;;;;;;;;24.10;46.12;97598.66;4974939;28;20005;-75
2022/08/05 04:02:43;;;;;;;;;;;;;;;24.16;46.12;97599.00;5003136;28;19940;-75
2022/08/05 04:05:45;;;;;;;;;;;;;;;24.25;46.03;97608.47;5004784;28;19929;-75
2022/08/05 04:08:13;;;;;;;;;;;;;;;24.25;45.98;97605.69;4998192;28;19934;-75
2022/08/05 04:11:01;;;;;;;;;;;;;;;24.27;46.14;97608.81;4999279;28;20313;-76
2022/08/05 04:13:30;;;;;;;5.25;3.60;;;;;;;24.30;46.32;97605.25;5003342;28;20409;-77
2022/08/05 04:16:43;;;;;;;7.38;3.72;;;;;;;24.33;46.43;97608.38;4996047;28;20901;-76
2022/08/05 04:19:12;;;;;;;9.45;3.85;;;;;;;24.27;49.11;97599.72;4975896;28;20496;-75
2022/08/05 04:21:42;;;;;;;6.43;3.80;;;;;;;24.33;48.09;97613.94;4984051;28;20418;-75
2022/08/05 04:24:31;;;;;;;6.68;3.50;;;;;;;24.38;50.88;97611.53;4977604;28;20416;-75
2022/08/05 04:26:58;;;;;;;;;;;;;;;24.59;47.69;97607.00;4977217;28;20415;-75
2022/08/05 04:29:51;;;;;;;;;;;;;;;24.43;48.06;97604.75;4925415;29;19922;-75
2022/08/05 04:32:19;;;;;;;;;;;;;;;24.44;46.34;97609.91;4941136;28;19965;-75
2022/08/05 04:34:57;;;;;;;;;;;;;;;24.48;46.18;97607.09;4939004;29;19922;-75
2022/08/05 04:37:50;;;;;;;;;;;;;;;24.59;45.29;97604.22;4947338;28;19970;-75
2022/08/05 04:40:30;;;;;;;;;;;;;;;24.80;43.75;97618.69;4948959;28;20013;-75
2022/08/05 04:43:01;;;;;;;;;;;;;;;24.64;44.63;97609.31;4877928;29;19983;-74
2022/08/05 04:45:32;;;;;;;;;;;;;;;24.51;45.08;97620.16;4880640;29;19998;-74
2022/08/05 04:48:15;;;;;;;;;;;;;;;24.55;44.71;97621.72;4922940;29;20033;-76
2022/08/05 04:50:53;;;;;;;;;;;;;;;24.50;45.12;97619.38;4933805;29;19958;-74
2022/08/05 04:53:30;;;;;;;;;;;;;;;24.69;44.18;97620.78;4934551;28;19971;-74
2022/08/05 04:56:26;;;;;;;;;;;;;;;24.46;45.05;97626.16;4933305;29;19930;-74
2022/08/05 04:59:01;;;;;;;;;;;;;;;24.74;42.74;97622.31;4928236;29;19923;-75
2022/08/05 05:01:49;;;;;;;;;;;;;;;24.47;43.64;97619.41;4971822;28;19922;-75
2022/08/05 05:04:35;;;;;;;;;;;;;;;24.65;42.91;97614.47;4978483;28;19939;-74
2022/08/05 05:07:05;;;;;;;;;;;;;;;24.73;41.84;97626.31;4995139;28;20024;-75
2022/08/05 05:09:36;;;;;;;;;;;;;;;24.68;42.60;97619.19;4975459;28;19926;-75
2022/08/05 05:12:06;;;;;;;;;;;;;;;24.69;42.31;97634.66;4972040;28;19926;-78
2022/08/05 05:14:37;;;;;;;;;;;;;;;24.81;42.71;97636.91;4975726;28;19945;-84
2022/08/05 05:17:07;;;;;;;;;;;;;;;24.82;42.29;97654.38;4994959;28;19940;-75
2022/08/05 05:19:39;;;;;;;;;;;;;;;24.81;41.08;97655.56;4994810;28;20034;-73
2022/08/05 05:22:11;;;;;;;4.43;3.00;;;;;;;24.86;41.64;97655.13;4989955;28;20429;-72
2022/08/05 05:24:53;;;;;;;;;;;;;;;24.92;41.44;97655.47;4977179;28;20418;-72
2022/08/05 05:27:27;;;;;;;;;;;;;;;24.61;41.90;97666.50;4964874;28;19938;-74
2022/08/05 05:30:13;;;;;;;5.70;3.08;;;;;;;24.89;41.21;97684.09;4984775;28;20578;-76
2022/08/05 05:32:57;;;;;;;5.85;3.08;;;;;;;24.85;41.35;97683.34;4984417;28;20432;-75
2022/08/05 05:35:28;;;;;;;5.23;2.43;;;;;;;24.86;41.39;97696.03;4988135;28;20442;-76
2022/08/05 05:38:06;;;;;;;;;;;;;;;24.93;41.15;97707.88;4986975;28;20427;-74
2022/08/05 05:40:36;;;;;;;;;;;;;;;24.81;41.73;97705.59;4991128;28;20008;-76
2022/08/05 05:43:05;;;;;;;;;;;;;;;24.70;41.78;97699.34;4966570;28;19984;-78
2022/08/05 05:45:35;;;;;;;;;;;;;;;24.60;41.90;97703.78;4972525;28;19976;-77
2022/08/05 05:48:04;;;;;;;;;;;;;;;24.71;42.33;97704.47;4931090;29;19922;-79
2022/08/05 05:50:35;;;;;;;;;;;;;;;24.86;42.08;97702.38;4932024;29;19978;-76
2022/08/05 05:53:10;;;;;;;;;;;;;;;24.79;41.92;97678.22;4938383;29;19923;-75
2022/08/05 05:55:48;;;;;;;;;;;;;;;24.73;42.03;97677.09;4917963;29;19927;-75
2022/08/05 05:58:20;;;;;;;;;;;;;;;24.70;42.95;97686.25;4933445;29;19923;-83
2022/08/05 06:00:49;;;;;;;5.53;2.95;;;;;;;24.81;42.50;97686.94;4931166;29;20550;-75
2022/08/05 06:03:17;;;;;;;6.95;3.30;;;;;;;25.08;41.81;97691.84;4931605;29;20486;-75
2022/08/05 06:06:55;;;;;;;5.60;2.90;;;;;;;24.94;42.65;97695.56;4953700;28;20434;-88
2022/08/05 06:09:29;;;;;;;5.15;3.20;;;;;;;25.10;42.17;97710.91;4975592;28;20786;-75
2022/08/05 06:15:10;;;;;;;;;;;;;;;25.46;41.44;97730.78;4993117;28;20013;-75
2022/08/05 06:17:52;;;;;;;;;;;;;;;25.47;41.13;97741.50;4980800;28;19922;-75
2022/08/05 06:20:21;;;;;;;;;;;;;;;25.51;41.57;97786.72;4969728;28;19929;-76
2022/08/05 06:22:49;;;;;;;;;;;;;;;25.30;42.39;97795.28;4974764;28;19921;-75
2022/08/05 06:25:17;;;;;;;;;;;;;;;25.27;42.97;97796.13;4972569;28;20385;-75
2022/08/05 06:27:52;;;;;;;;;;;;;;;25.35;43.43;97803.19;4993044;28;19925;-76
2022/08/05 06:30:40;;;;;;;;;;;;;;;25.21;44.12;97803.34;4974882;28;20427;-77
2022/08/05 06:33:08;;;;;;;;;;;;;;;25.11;44.23;97807.00;4975527;28;19928;-76
2022/08/05 06:35:37;;;;;;;;;;;;;;;25.02;44.71;97799.09;4991147;28;19929;-75
2022/08/05 06:38:25;;;;;;;;;;;;;;;25.07;45.13;97790.34;4989263;28;19925;-75
2022/08/05 06:41:03;;;;;;;;;;;;;;;25.19;44.93;97800.16;4995401;28;20273;-75
2022/08/05 06:43:31;;;;;;;;;;;;;;;25.17;44.82;97817.25;4996653;28;19969;-76
2022/08/05 06:46:20;;;;;;;11.43;3.10;;;;;;;25.14;45.50;97820.06;4977349;28;20530;-76
2022/08/05 06:48:48;;;;;;;5.95;3.03;;;;;;;25.07;45.54;97830.06;4993887;28;20436;-77
2022/08/05 06:51:25;;;;;;;;;;;;;;;25.07;45.54;97848.72;4977510;28;20650;-76
2022/08/05 06:53:56;;;;;;;;;;;;;;;24.96;45.96;97851.56;4975211;28;20008;-77
2022/08/05 06:56:26;;;;;;;;;;;;;;;24.89;46.33;97850.81;4995930;28;19928;-77
2022/08/05 06:58:57;;;;;;;;;;;;;;;24.75;46.95;97848.91;5000098;28;20017;-76
2022/08/05 07:01:26;;;;;;;;;;;;;;;24.70;47.15;97850.13;4977597;28;20285;-77
2022/08/05 07:04:04;;;;;;;;;;;;;;;24.82;47.02;97863.56;4994348;28;19922;-77
2022/08/05 07:09:24;;;;;;;;;;;;;;;24.93;46.99;97885.72;4974476;28;20408;-77
2022/08/05 07:11:54;;;;;;;;;;;;;;;24.86;47.37;97879.41;4995758;28;19928;-77
2022/08/05 07:17:14;;;;;;;;;;;;;;;25.10;46.97;97889.63;4991989;28;19977;-79
2022/08/05 07:20:03;;;;;;;;;;;;;;;25.25;46.74;97890.28;4976928;28;19984;-79
2022/08/05 07:22:51;;;;;;;;;;;;;;;25.12;46.79;97891.97;4993255;28;20020;-77
2022/08/05 07:25:19;;;;;;;;;;;;;;;25.32;46.01;97890.22;4978042;28;19925;-76
2022/08/05 07:28:07;;;;;;;;;;;;;;;25.43;46.18;97890.94;4970341;28;19929;-76
2022/08/05 07:30:40;;;;;;;;;;;;;;;25.51;45.87;97900.78;4968799;28;19929;-78
2022/08/05 07:33:10;;;;;;;;;;;;;;;25.61;45.72;97891.53;4973304;28;20423;-78
2022/08/05 07:35:44;;;;;;;4.40;2.22;;;;;;;25.68;45.29;97898.28;4970924;28;20471;-79
2022/08/05 07:38:35;;;;;;;;;;;;;;;25.72;45.39;97908.13;4981265;28;20881;-78
2022/08/05 07:41:10;;;;;;;;;;;;;;;25.90;44.80;97890.53;4991478;28;19950;-78
2022/08/05 07:44:02;;;;;;;7.32;2.03;;;;;;;26.03;44.64;97888.78;4959133;28;20407;-77
2022/08/05 07:46:31;;;;;;;5.10;2.20;;;;;;;26.09;44.31;97889.91;4957168;28;20516;-77
2022/08/05 07:49:02;;;;;;;4.50;1.77;;;;;;;26.23;44.38;97886.16;4951993;28;20467;-77
2022/08/05 07:51:37;;;;;;;4.63;1.90;;;;;;;26.17;44.38;97899.75;4967377;28;20519;-77
2022/08/05 07:54:19;;;;;;;4.80;2.17;;;;;;;26.38;43.46;97898.72;4956062;28;20434;-76
2022/08/05 07:56:49;;;;;;;6.22;1.98;;;;;;;26.45;43.14;97893.06;4956319;28;20428;-77
2022/08/05 07:59:38;;;;;;;4.27;1.73;;;;;;;26.41;42.87;97897.88;4957033;28;20743;-75
2022/08/05 08:02:09;;;;;;;6.85;2.08;;;;;;;26.63;42.63;97902.00;4954866;28;20434;-76
2022/08/05 08:04:47;;;;;;;3.83;1.80;;;;;;;26.75;42.74;97899.88;4954004;28;20440;-76
2022/08/05 08:07:18;;;;;;;;;;;;;;;26.87;42.33;97891.72;4958012;28;20473;-77
2022/08/05 08:09:50;;;;;;;;;;;;;;;27.04;41.96;97903.81;4959139;28;20288;-76
2022/08/05 08:12:44;;;;;;;;;;;;;;;26.66;42.09;97894.00;4978453;28;19993;-77
2022/08/05 08:15:16;;;;;;;;;;;;;;;26.88;41.81;97900.84;4985484;28;19981;-76
2022/08/05 08:17:46;;;;;;;;;;;;;;;27.14;42.01;97902.88;4976487;28;19925;-77
2022/08/05 08:20:24;;;;;;;;;;;;;;;27.22;41.57;97905.56;4960399;28;19946;-77
2022/08/05 08:26:24;;;;;;;;;;;;;;;26.93;42.18;97905.97;4968695;28;20346;-75
2022/08/05 08:28:54;;;;;;;7.80;2.28;;;;;;;27.04;42.16;97912.16;4892632;28;2080698;-75
2022/08/05 08:31:42;;;;;;;5.82;2.00;;;;;;;27.02;42.04;97909.03;4975276;28;20422;-75
2022/08/05 08:34:10;;;;;;;4.47;1.90;;;;;;;26.92;42.46;97909.19;4974328;28;20517;-74
2022/08/05 08:36:42;;;;;;;49.85;5.00;;;;;;;27.02;42.52;97916.59;4982080;28;20502;-76
2022/08/05 08:39:17;;;;;;;13.75;2.30;;;;;;;26.98;41.74;97924.22;4990989;28;20873;-76
2022/08/05 08:41:50;;;;;;;3.80;2.10;;;;;;;27.09;41.98;97924.88;5011641;28;20415;-73
2022/08/05 08:44:30;;;;;;;5.55;2.10;;;;;;;27.25;41.79;97927.03;4996949;28;20431;-73
2022/08/05 08:47:19;;;;;;;4.00;2.00;;;;;;;27.18;42.12;97932.72;4983857;28;20479;-73
2022/08/05 08:50:08;;;;;;;5.47;2.23;;;;;;;27.06;41.93;97922.88;4983941;28;20426;-73
2022/08/05 08:53:02;;;;;;;3.20;2.17;;;;;;;27.07;41.16;97933.69;4972560;28;20419;-73
2022/08/05 08:55:40;;;;;;;3.55;1.73;;;;;;;27.07;41.77;97927.31;4975788;28;20571;-74
2022/08/05 08:58:29;;;;;;;5.57;1.98;;;;;;;27.19;41.74;97928.72;4967201;28;20513;-73
2022/08/05 09:01:12;;;;;;;4.50;1.90;;;;;;;27.48;41.28;97918.66;4972541;28;20414;-74
2022/08/05 09:03:46;;;;;;;4.50;2.08;;;;;;;27.68;41.27;97924.31;4991863;28;20439;-74
2022/08/05 09:06:19;;;;;;;8.13;2.40;;;;;;;27.81;40.59;97930.13;4995065;28;20889;-75
2022/08/05 09:08:52;;;;;;;4.28;2.17;;;;;;;27.91;40.69;97926.34;4973397;28;20419;-76
2022/08/05 09:11:36;;;;;;;5.03;2.22;;;;;;;27.95;39.63;97932.66;4973001;28;20499;-75
2022/08/05 09:17:29;;;;;;;3.83;2.05;;;;;;;27.56;40.17;97931.31;4932405;29;20437;-72
2022/08/05 09:20:09;;;;;;;4.80;2.28;;;;;;;27.56;41.00;97938.91;4913268;29;20432;-72
2022/08/05 09:26:16;;;;;;;5.80;2.30;;;;;;;27.65;41.40;97922.41;4930577;29;20438;-72
2022/08/05 09:28:49;;;;;;;4.57;2.30;;;;;;;27.52;40.46;97930.56;4930711;29;20419;-74
2022/08/05 09:31:23;;;;;;;;;;;;;;;27.75;40.96;97927.03;4929411;29;20419;-75
2022/08/05 09:34:12;;;;;;;;;;;;;;;27.92;40.94;97922.34;4932652;29;19923;-74
2022/08/05 09:36:45;;;;;;;;;;;;;;;27.91;39.51;97926.34;4914916;29;20389;-74
2022/08/05 09:39:24;;;;;;;;;;;;;;;27.96;40.18;97925.06;4927888;29;19923;-74
2022/08/05 09:42:09;;;;;;;;;;;;;;;27.89;40.80;97918.38;4928355;29;19923;-76
2022/08/05 09:44:41;;;;;;;;;;;;;;;27.96;41.31;97931.44;4933050;29;19923;-73
2022/08/05 09:47:10;;;;;;;;;;;;;;;27.84;39.06;97918.88;4923060;29;19962;-72
2022/08/05 09:49:41;;;;;;;;;;;;;;;27.99;39.29;97916.63;4929091;29;20021;-73
2022/08/05 09:52:26;;;;;;;5.05;1.92;;;;;;;28.02;37.86;97914.97;4977644;28;20911;-72
2022/08/05 09:55:00;;;;;;;3.95;2.00;;;;;;;28.21;38.77;97897.44;4975728;28;20440;-74
2022/08/05 09:57:49;;;;;;;;;;;;;;;28.22;39.71;97912.19;4988279;28;20433;-73
2022/08/05 10:00:23;;;;;;;;;;;;;;;28.24;38.83;97898.59;4925068;29;19926;-73
2022/08/05 10:03:16;;;;;;;;;;;;;;;28.20;39.14;97896.66;4921654;29;19934;-74
2022/08/05 10:05:44;;;;;;;;;;;;;;;27.93;36.96;97896.00;4940355;29;19923;-73
2022/08/05 10:08:12;;;;;;;;;;;;;;;28.14;37.04;97886.44;4932316;29;20013;-74
2022/08/05 10:11:03;;;;;;;;;;;;;;;28.34;34.96;97878.06;4938025;29;20424;-77
2022/08/05 10:13:34;;;;;;;;;;;;;;;28.55;37.05;97877.63;4943996;29;19958;-74
2022/08/05 10:16:25;;;;;;;;;;;;;;;28.68;34.60;97881.31;4941576;29;19926;-77
2022/08/05 10:18:55;;;;;;;;;;;;;;;28.79;35.58;97885.88;4968099;28;19922;-76
2022/08/05 10:21:23;;;;;;;2.80;1.40;;;;;;;28.83;35.53;97879.00;4983440;28;19928;-76
2022/08/05 10:23:51;;;;;;;;;;;;;;;28.84;33.34;97879.78;4989626;28;20434;-77
2022/08/05 10:26:26;;;;;;;;;;;;;;;28.92;35.77;97878.38;4985033;28;20356;-76
2022/08/05 10:29:01;;;;;;;;;;;;;;;28.87;35.31;97870.50;4980119;28;19922;-77
2022/08/05 10:31:29;;;;;;;;;;;;;;;28.90;34.62;97878.03;5003214;28;19977;-77
2022/08/05 10:34:17;;;;;;;;;;;;;;;29.01;33.24;97866.63;4997056;28;19922;-77
2022/08/05 10:36:45;;;;;;;;;;;;;;;29.09;34.36;97871.63;4969828;28;20008;-77
2022/08/05 10:39:15;;;;;;;;;;;;;;;29.17;34.39;97875.81;4999994;28;20012;-77
2022/08/05 10:41:57;;;;;;;2.92;1.55;;;;;;;28.99;34.72;97872.66;4980410;28;20436;-76
2022/08/05 10:44:32;;;;;;;3.22;1.20;;;;;;;29.08;32.88;97864.44;4990135;28;20510;-76
2022/08/05 10:47:12;;;;;;;3.95;1.10;;;;;;;29.23;34.67;97857.28;4974101;28;20423;-76
2022/08/05 10:50:00;;;;;;;;;;;;;;;29.16;35.20;97870.66;4988457;28;20434;-76
2022/08/05 10:52:55;;;;;;;;;;;;;;;29.21;32.15;97867.34;4975581;28;19922;-76
2022/08/05 10:55:26;;;;;;;;;;;;;;;29.32;33.16;97865.06;4992789;28;19986;-76
2022/08/05 10:58:08;;;;;;;;;;;;;;;29.36;33.06;97859.41;4973745;28;20424;-76
2022/08/05 11:00:38;;;;;;;3.78;1.27;;;;;;;29.45;33.18;97848.34;4972919;28;20474;-76
2022/08/05 11:03:13;;;;;;;3.20;1.40;;;;;;;29.48;33.04;97853.06;4993488;28;20429;-76
2022/08/05 11:06:10;;;;;;;2.80;1.50;;;;;;;29.47;30.70;97840.31;4989570;28;20501;-75
2022/08/05 11:09:27;;;;;;;3.73;1.37;;;;;;;29.57;30.20;97833.69;4994183;28;20422;-76
2022/08/05 11:12:44;;;;;;;3.03;1.20;;;;;;;29.69;31.61;97835.75;4995349;28;20438;-76
2022/08/05 11:15:26;;;;;;;3.95;1.30;;;;;;;29.73;32.15;97841.25;4974580;28;20457;-76
2022/08/05 11:18:27;;;;;;;2.90;1.50;;;;;;;29.75;30.18;97847.19;4996649;28;20418;-76
2022/08/05 11:21:00;;;;;;;2.30;1.23;;;;;;;29.94;29.61;97828.69;4994765;28;20424;-76
2022/08/05 11:23:38;;;;;;;5.50;1.50;;;;;;;30.02;30.46;97842.03;4990950;28;20415;-76
2022/08/05 11:26:51;;;;;;;;;;;;;;;29.94;31.09;97845.50;4982217;28;20432;-75
2022/08/05 11:29:35;;;;;;;;;;;;;;;29.95;31.93;97841.47;4988416;28;19932;-74
2022/08/05 11:32:21;;;;;;;;;;;;;;;29.77;31.24;97841.16;4992628;28;19921;-74
2022/08/05 11:34:51;;;;;;;3.88;1.30;;;;;;;29.73;30.37;97852.47;4999542;28;20485;-74
2022/08/05 11:37:58;;;;;;;3.13;1.30;;;;;;;29.79;30.80;97863.91;4989896;28;20426;-74
2022/08/05 11:40:58;;;;;;;3.63;1.48;;;;;;;29.65;30.74;97856.66;4992578;28;20414;-74
2022/08/05 11:43:44;;;;;;;2.75;1.42;;;;;;;29.90;29.19;97867.19;4997005;28;20433;-74
2022/08/05 11:46:34;;;;;;;2.75;1.20;;;;;;;30.07;29.15;97854.72;4988977;28;20422;-74
2022/08/05 11:49:04;;;;;;;3.30;1.50;;;;;;;30.20;30.65;97851.97;4993588;28;20871;-74
2022/08/05 11:51:36;;;;;;;3.20;1.50;;;;;;;30.10;30.13;97853.84;4976597;28;20417;-74
2022/08/05 11:54:23;;;;;;;2.97;1.40;;;;;;;30.12;30.35;97854.19;4993641;28;20521;-74
2022/08/05 11:57:02;;;;;;;3.50;1.40;;;;;;;30.16;30.07;97856.91;4990073;28;20450;-74
2022/08/05 11:59:50;;;;;;;2.80;1.20;;;;;;;30.16;29.55;97840.09;4979796;28;20422;-74
2022/08/05 12:02:24;;;;;;;2.47;1.20;;;;;;;30.15;29.30;97850.53;4975007;28;20439;-74
2022/08/05 12:05:00;;;;;;;3.20;1.40;;;;;;;30.22;30.21;97855.13;4972103;28;20454;-74
2022/08/05 12:07:38;;;;;;;2.20;1.20;;;;;;;30.08;29.22;97856.28;4973927;28;20431;-74
2022/08/05 12:10:27;;;;;;;2.40;1.40;;;;;;;30.22;29.35;97855.91;4976454;28;20425;-74
2022/08/05 12:13:15;;;;;;;3.13;1.60;;;;;;;30.44;28.61;97855.28;4975322;28;20866;-75
2022/08/05 12:16:07;;;;;;;2.90;1.45;;;;;;;30.54;29.01;97848.56;4997231;28;20617;-73
2022/08/05 12:18:42;;;;;;;;;;;;;;;30.67;29.13;97851.38;4995293;28;22084;-75
2022/08/05 12:21:22;;;;;;;2.95;1.27;;;;;;;30.73;28.98;97856.00;4991617;28;20440;-74
2022/08/05 12:23:58;;;;;;;3.35;1.40;;;;;;;30.71;29.04;97841.66;4974918;28;20445;-74
2022/08/05 12:26:32;;;;;;;;;;;;;;;30.62;28.77;97852.72;4994489;28;20776;-74
2022/08/05 12:29:01;;;;;;;;;;;;;;;30.54;28.75;97834.56;4977275;28;19930;-74
2022/08/05 12:31:31;;;;;;;;;;;;;;;30.73;29.61;97841.19;4992844;28;19933;-74
2022/08/05 12:34:10;;;;;;;2.83;1.20;;;;;;;30.41;29.36;97830.94;4985859;28;20446;-74
2022/08/05 12:36:52;;;;;;;3.47;1.20;;;;;;;30.42;28.78;97835.34;4990747;28;20553;-73
2022/08/05 12:39:25;;;;;;;2.80;1.40;;;;;;;30.59;29.90;97838.81;4987423;28;20968;-74
2022/08/05 12:42:10;;;;;;;4.40;1.52;;;;;;;30.66;30.22;97827.38;4974832;28;20414;-74
2022/08/05 12:44:45;;;;;;;4.32;1.70;;;;;;;30.70;29.41;97833.69;4976646;28;20429;-74
2022/08/05 12:47:27;;;;;;;3.33;1.37;;;;;;;30.72;29.85;97834.81;4973146;28;20540;-75
2022/08/05 12:49:57;;;;;;;3.40;1.58;;;;;;;30.61;29.00;97837.13;4989536;28;20433;-77
2022/08/05 12:52:35;;;;;;;2.80;1.50;;;;;;;30.68;29.77;97831.31;4972673;28;20438;-77
2022/08/05 12:55:25;;;;;;;2.45;1.50;;;;;;;30.77;30.24;97834.25;4973596;28;20952;-79
2022/08/05 12:57:56;;;;;;;3.97;1.50;;;;;;;30.73;29.23;97833.56;4969968;28;20463;-75
2022/08/05 13:00:45;;;;;;;3.10;1.70;;;;;;;30.80;29.91;97823.38;4989982;28;20514;-74
2022/08/05 13:03:36;;;;;;;4.93;1.50;;;;;;;30.81;29.91;97824.94;4991208;28;20853;-74
2022/08/05 13:06:15;;;;;;;2.80;1.30;;;;;;;30.78;29.28;97818.22;4973428;28;20425;-75
2022/08/05 13:08:45;;;;;;;2.63;1.45;;;;;;;30.83;28.67;97819.66;4974903;28;20469;-75
2022/08/05 13:11:22;;;;;;;3.75;1.38;;;;;;;30.87;28.92;97821.13;4976809;28;20968;-74
2022/08/05 13:14:18;;;;;;;6.15;1.60;;;;;;;31.01;30.15;97820.69;4995710;28;20481;-75